createdAt,value
2019-03-25T00:00:07.635Z,16.50
2019-03-25T00:02:09.861Z,24.37
2019-03-25T00:04:12.100Z,23.10
2019-03-25T00:06:14.634Z,19.57
2019-03-25T00:08:16.862Z,20.83
2019-03-25T00:10:19.369Z,17.37
2019-03-25T00:12:21.610Z,13.17
2019-03-25T00:14:23.854Z,18.20
2019-03-25T00:16:26.073Z,16.53
2019-03-25T00:18:28.306Z,17.20
2019-03-25T00:20:30.533Z,20.07
2019-03-25T00:22:32.758Z,13.50
2019-03-25T00:24:39.112Z,14.10
2019-03-25T00:26:39.193Z,20.10
2019-03-25T00:28:41.426Z,19.03
2019-03-25T00:30:43.646Z,19.10
2019-03-25T00:32:45.868Z,16.27
2019-03-25T00:34:48.101Z,12.10
2019-03-25T00:36:50.317Z,15.10
2019-03-25T00:38:52.542Z,15.03
2019-03-25T00:40:54.762Z,11.87
2019-03-25T00:42:57.266Z,11.13
2019-03-25T00:44:59.738Z,19.40
2019-03-25T00:47:01.953Z,17.20
2019-03-25T00:49:04.185Z,14.47
2019-03-25T00:51:06.410Z,11.90
2019-03-25T00:53:08.641Z,12.33
2019-03-25T00:55:10.862Z,17.50
2019-03-25T00:57:13.082Z,18.50
2019-03-25T00:59:15.322Z,12.13
2019-03-25T01:01:17.650Z,11.80
2019-03-25T01:03:19.891Z,14.07
2019-03-25T01:05:22.113Z,14.83
2019-03-25T01:07:24.885Z,12.40
2019-03-25T01:09:27.105Z,21.03
2019-03-25T01:11:29.318Z,9.63
2019-03-25T01:13:31.541Z,12.77
2019-03-25T01:15:33.760Z,14.20
2019-03-25T01:17:35.965Z,11.27
2019-03-25T01:19:38.200Z,10.13
2019-03-25T01:21:40.409Z,11.13
2019-03-25T01:23:42.877Z,16.03
2019-03-25T01:25:45.101Z,24.40
2019-03-25T01:27:47.325Z,10.90
2019-03-25T01:29:49.549Z,14.83
2019-03-25T01:31:51.770Z,16.63
2019-03-25T01:33:53.989Z,22.73
2019-03-25T01:35:56.204Z,13.03
2019-03-25T01:37:58.434Z,10.03
2019-03-25T01:40:00.657Z,12.50
2019-03-25T01:42:02.879Z,13.87
2019-03-25T01:44:05.212Z,22.47
2019-03-25T01:46:07.432Z,12.13
2019-03-25T01:48:09.646Z,23.83
2019-03-25T01:50:11.874Z,20.80
2019-03-25T01:52:14.089Z,16.20
2019-03-25T01:54:16.346Z,11.77
2019-03-25T01:56:18.567Z,16.00
2019-03-25T01:58:20.784Z,14.07
2019-03-25T02:00:23.026Z,17.83
2019-03-25T02:02:25.249Z,13.27
2019-03-25T02:04:27.480Z,22.53
2019-03-25T02:06:29.702Z,24.13
2019-03-25T02:08:31.926Z,16.57
2019-03-25T02:10:34.253Z,29.90
2019-03-25T02:12:36.477Z,14.97
2019-03-25T02:14:38.983Z,18.73
2019-03-25T02:16:41.237Z,21.30
2019-03-25T02:18:43.474Z,11.33
2019-03-25T02:20:46.033Z,32.67
2019-03-25T02:22:48.641Z,11.67
2019-03-25T02:24:51.174Z,23.80
2019-03-25T02:26:53.401Z,14.37
2019-03-25T02:28:55.974Z,18.07
2019-03-25T02:30:58.782Z,13.67
2019-03-25T02:33:01.011Z,16.47
2019-03-25T02:35:03.360Z,25.80
2019-03-25T02:37:05.580Z,11.70
2019-03-25T02:39:07.815Z,9.93
2019-03-25T02:41:10.025Z,16.10
2019-03-25T02:43:12.267Z,13.90
2019-03-25T02:45:14.491Z,16.43
2019-03-25T02:47:16.715Z,19.10
2019-03-25T02:49:18.959Z,18.17
2019-03-25T02:51:21.189Z,18.93
2019-03-25T02:53:23.404Z,25.73
2019-03-25T02:55:40.250Z,30.83
2019-03-25T02:57:29.755Z,23.23
2019-03-25T02:59:31.998Z,22.63
2019-03-25T03:01:34.242Z,19.73
2019-03-25T03:03:36.740Z,28.13
2019-03-25T03:05:38.974Z,23.17
2019-03-25T03:07:41.198Z,15.10
2019-03-25T03:09:43.432Z,24.67
2019-03-25T03:11:45.649Z,20.97
2019-03-25T03:13:47.875Z,12.80
2019-03-25T03:15:50.102Z,19.90
2019-03-25T03:17:52.332Z,25.53
2019-03-25T03:19:55.354Z,22.50
2019-03-25T03:21:57.982Z,16.23
2019-03-25T03:24:00.213Z,15.97
2019-03-25T03:26:02.445Z,21.23
2019-03-25T03:28:04.669Z,19.07
2019-03-25T03:30:06.940Z,16.53
2019-03-25T03:32:09.158Z,18.40
2019-03-25T03:34:11.378Z,17.30
2019-03-25T03:36:13.886Z,19.53
2019-03-25T03:38:16.398Z,18.53
2019-03-25T03:40:18.738Z,15.87
2019-03-25T03:42:21.299Z,20.13
2019-03-25T03:44:24.241Z,24.13
2019-03-25T03:46:26.490Z,22.70
2019-03-25T03:48:28.795Z,20.17
2019-03-25T03:50:31.026Z,27.53
2019-03-25T03:52:33.973Z,19.13
2019-03-25T03:54:36.189Z,15.70
2019-03-25T03:56:38.464Z,15.43
2019-03-25T03:58:41.158Z,17.97
2019-03-25T04:00:43.389Z,19.67
2019-03-25T04:02:45.611Z,13.97
2019-03-25T04:04:47.834Z,16.23
2019-03-25T04:06:50.077Z,15.10
2019-03-25T04:08:52.300Z,14.43
2019-03-25T04:10:54.523Z,16.73
2019-03-25T04:12:57.676Z,15.97
2019-03-25T04:14:59.890Z,15.80
2019-03-25T04:17:02.109Z,18.27
2019-03-25T04:19:04.587Z,17.47
2019-03-25T04:21:06.833Z,16.83
2019-03-25T04:23:09.149Z,9.17
2019-03-25T04:25:11.672Z,9.20
2019-03-25T04:27:13.904Z,11.27
2019-03-25T04:29:16.123Z,8.57
2019-03-25T04:31:18.354Z,14.20
2019-03-25T04:33:20.570Z,12.00
2019-03-25T04:35:22.788Z,5.07
2019-03-25T04:37:25.017Z,10.10
2019-03-25T04:39:27.522Z,10.37
2019-03-25T04:41:29.753Z,9.10
2019-03-25T04:43:31.971Z,8.33
2019-03-25T04:45:34.208Z,11.87
2019-03-25T04:47:36.429Z,7.07
2019-03-25T04:49:38.645Z,7.07
2019-03-25T04:51:40.879Z,5.77
2019-03-25T04:53:43.098Z,6.90
2019-03-25T04:55:45.322Z,7.53
2019-03-25T04:57:47.549Z,6.30
2019-03-25T04:59:49.786Z,6.50
2019-03-25T05:01:52.022Z,5.67
2019-03-25T05:03:54.296Z,4.20
2019-03-25T05:05:56.576Z,7.50
2019-03-25T05:07:58.796Z,5.07
2019-03-25T05:10:01.017Z,8.50
2019-03-25T05:12:03.255Z,3.07
2019-03-25T05:14:05.475Z,6.83
2019-03-25T05:16:07.709Z,5.53
2019-03-25T05:18:09.934Z,5.07
2019-03-25T05:20:12.153Z,5.37
2019-03-25T05:22:14.386Z,6.10
2019-03-25T05:24:16.605Z,6.40
2019-03-25T05:26:19.161Z,11.70
2019-03-25T05:28:21.384Z,7.10
2019-03-25T05:30:23.642Z,4.13
2019-03-25T05:32:25.873Z,5.93
2019-03-25T05:34:28.441Z,15.73
2019-03-25T05:36:30.673Z,9.60
2019-03-25T05:38:32.900Z,6.30
2019-03-25T05:40:35.238Z,5.17
2019-03-25T05:42:37.470Z,8.07
2019-03-25T05:44:39.689Z,7.90
2019-03-25T05:46:41.935Z,11.53
2019-03-25T05:48:44.153Z,12.83
2019-03-25T05:50:46.377Z,7.27
2019-03-25T05:52:48.605Z,10.50
2019-03-25T05:54:51.150Z,5.23
2019-03-25T05:57:02.034Z,5.03
2019-03-25T05:58:57.741Z,6.37
2019-03-25T06:01:00.210Z,4.17
2019-03-25T06:03:02.435Z,8.17
2019-03-25T06:05:04.877Z,5.60
2019-03-25T06:07:07.102Z,4.07
2019-03-25T06:09:09.317Z,7.90
2019-03-25T06:11:11.541Z,7.73
2019-03-25T06:13:13.770Z,7.77
2019-03-25T06:15:16.309Z,8.13
2019-03-25T06:17:18.556Z,3.40
2019-03-25T06:19:21.206Z,2.33
2019-03-25T06:21:25.802Z,3.83
2019-03-25T06:23:28.030Z,6.33
2019-03-25T06:25:30.250Z,5.07
2019-03-25T06:27:32.486Z,6.13
2019-03-25T06:29:34.710Z,6.47
2019-03-25T06:31:36.937Z,7.50
2019-03-25T06:33:39.164Z,3.40
2019-03-25T06:35:41.386Z,4.33
2019-03-25T06:37:43.618Z,4.03
2019-03-25T06:39:45.840Z,3.67
2019-03-25T06:41:48.070Z,12.53
2019-03-25T06:43:50.302Z,2.53
2019-03-25T06:45:52.517Z,3.87
2019-03-25T06:47:54.756Z,4.73
2019-03-25T06:49:56.986Z,8.60
2019-03-25T06:51:59.218Z,8.30
2019-03-25T06:54:01.778Z,5.43
2019-03-25T06:56:04.001Z,4.20
2019-03-25T06:58:06.238Z,8.63
2019-03-25T07:00:08.537Z,4.40
2019-03-25T07:02:10.766Z,4.27
2019-03-25T07:04:12.978Z,7.13
2019-03-25T07:06:15.199Z,12.07
2019-03-25T07:08:17.437Z,9.80
2019-03-25T07:10:30.594Z,11.73
2019-03-25T07:12:32.823Z,3.37
2019-03-25T07:14:35.040Z,13.47
2019-03-25T07:16:37.262Z,9.90
2019-03-25T07:18:39.502Z,7.50
2019-03-25T07:20:41.725Z,6.57
2019-03-25T07:22:44.254Z,6.60
2019-03-25T07:24:46.473Z,10.00
2019-03-25T07:26:48.741Z,5.90
2019-03-25T07:28:51.019Z,9.97
2019-03-25T07:30:53.337Z,7.83
2019-03-25T07:32:55.605Z,6.20
2019-03-25T07:34:58.087Z,8.90
2019-03-25T07:37:00.319Z,8.53
2019-03-25T07:39:04.138Z,7.90
2019-03-25T07:41:06.358Z,7.13
2019-03-25T07:43:08.961Z,17.40
2019-03-25T07:45:11.355Z,8.43
2019-03-25T07:47:13.578Z,15.83
2019-03-25T07:49:15.798Z,14.67
2019-03-25T07:51:18.028Z,8.53
2019-03-25T07:53:20.237Z,7.73
2019-03-25T07:55:22.467Z,11.63
2019-03-25T07:57:24.715Z,16.27
2019-03-25T07:59:27.052Z,18.07
2019-03-25T08:01:29.369Z,20.03
2019-03-25T08:03:31.664Z,21.80
2019-03-25T08:05:33.925Z,11.63
2019-03-25T08:07:36.215Z,20.67
2019-03-25T08:09:38.776Z,11.80
2019-03-25T08:11:40.985Z,5.97
2019-03-25T08:13:43.631Z,17.07
2019-03-25T08:15:45.843Z,8.20
2019-03-25T08:17:48.081Z,15.63
2019-03-25T08:19:50.301Z,9.83
2019-03-25T08:21:52.517Z,22.37
2019-03-25T08:23:54.762Z,8.67
2019-03-25T08:25:57.069Z,10.87
2019-03-25T08:28:00.476Z,9.00
2019-03-25T08:30:03.765Z,7.33
2019-03-25T08:32:06.014Z,9.50
2019-03-25T08:34:08.246Z,9.40
2019-03-25T08:36:10.467Z,11.07
2019-03-25T08:38:12.698Z,9.87
2019-03-25T08:40:14.941Z,8.80
2019-03-25T08:42:17.185Z,5.63
2019-03-25T08:44:19.417Z,12.97
2019-03-25T08:46:21.677Z,6.13
2019-03-25T08:48:23.905Z,7.50
2019-03-25T08:50:26.127Z,9.77
2019-03-25T08:52:28.342Z,6.50
2019-03-25T08:54:30.821Z,9.70
2019-03-25T08:56:33.042Z,5.27
2019-03-25T08:58:35.277Z,8.30
2019-03-25T09:00:37.842Z,11.00
2019-03-25T09:02:40.069Z,4.40
2019-03-25T09:04:42.291Z,6.83
2019-03-25T09:06:44.510Z,19.97
2019-03-25T09:08:46.747Z,9.67
2019-03-25T09:10:48.966Z,6.10
2019-03-25T09:12:51.185Z,9.17
2019-03-25T09:14:53.413Z,9.97
2019-03-25T09:16:55.631Z,9.07
2019-03-25T09:18:58.135Z,8.03
2019-03-25T09:21:00.353Z,10.87
2019-03-25T09:23:02.611Z,10.53
2019-03-25T09:25:05.734Z,9.47
2019-03-25T09:27:08.245Z,9.00
2019-03-25T09:29:10.793Z,9.10
2019-03-25T09:31:14.380Z,6.23
2019-03-25T09:33:16.637Z,7.83
2019-03-25T09:35:18.862Z,9.27
2019-03-25T09:37:21.409Z,6.33
2019-03-25T09:39:23.651Z,6.53
2019-03-25T09:41:25.873Z,8.53
2019-03-25T09:43:28.114Z,10.90
2019-03-25T09:45:30.345Z,9.53
2019-03-25T09:47:32.578Z,11.50
2019-03-25T09:49:34.813Z,12.67
2019-03-25T09:51:37.051Z,8.73
2019-03-25T09:53:39.283Z,10.87
2019-03-25T09:55:41.508Z,11.87
2019-03-25T09:57:43.736Z,11.73
2019-03-25T09:59:46.017Z,9.30
2019-03-25T10:01:48.278Z,16.50
2019-03-25T10:03:50.511Z,13.30
2019-03-25T10:05:52.753Z,15.87
2019-03-25T10:07:54.977Z,7.53
2019-03-25T10:09:57.217Z,13.20
2019-03-25T10:11:59.719Z,12.57
2019-03-25T10:14:01.949Z,9.77
2019-03-25T10:16:04.213Z,11.40
2019-03-25T10:18:06.430Z,6.43
2019-03-25T10:20:08.718Z,4.87
2019-03-25T10:22:10.937Z,5.80
2019-03-25T10:24:13.557Z,7.40
2019-03-25T10:26:15.845Z,7.97
2019-03-25T10:28:18.070Z,5.33
2019-03-25T10:30:21.418Z,6.20
2019-03-25T10:32:23.638Z,9.60
2019-03-25T10:34:25.878Z,5.80
2019-03-25T10:36:28.101Z,6.93
2019-03-25T10:38:30.925Z,10.00
2019-03-25T10:40:33.745Z,6.87
2019-03-25T10:42:35.961Z,8.00
2019-03-25T10:44:38.465Z,6.63
2019-03-25T10:46:40.692Z,8.83
2019-03-25T10:48:42.901Z,5.50
2019-03-25T10:50:45.129Z,5.17
2019-03-25T10:52:47.349Z,6.17
2019-03-25T10:54:49.631Z,3.83
2019-03-25T10:56:52.198Z,9.03
2019-03-25T10:58:58.205Z,2.70
2019-03-25T11:00:59.314Z,4.90
2019-03-25T11:03:01.534Z,2.40
2019-03-25T11:05:04.285Z,10.53
2019-03-25T11:07:06.521Z,4.70
2019-03-25T11:09:08.825Z,5.13
2019-03-25T11:11:11.054Z,4.60
2019-03-25T11:13:13.838Z,4.37
2019-03-25T11:15:16.178Z,4.40
2019-03-25T11:17:18.389Z,6.00
2019-03-25T11:19:20.598Z,2.70
2019-03-25T11:21:22.826Z,5.13
2019-03-25T11:23:25.038Z,2.40
2019-03-25T11:25:27.583Z,8.57
2019-03-25T11:27:30.127Z,3.40
2019-03-25T11:29:32.366Z,3.63
2019-03-25T11:31:34.585Z,3.73
2019-03-25T11:33:36.797Z,4.13
2019-03-25T11:35:39.029Z,3.80
2019-03-25T11:37:41.247Z,4.50
2019-03-25T11:39:43.469Z,6.03
2019-03-25T11:41:45.686Z,3.93
2019-03-25T11:43:47.901Z,5.67
2019-03-25T11:45:50.153Z,5.47
2019-03-25T11:47:52.369Z,6.47
2019-03-25T11:49:54.599Z,16.13
2019-03-25T11:51:56.834Z,4.63
2019-03-25T11:53:59.121Z,2.67
2019-03-25T11:56:01.633Z,6.27
2019-03-25T11:58:03.845Z,6.23
2019-03-25T12:00:07.161Z,15.73
2019-03-25T12:02:17.252Z,1.70
2019-03-25T12:04:13.473Z,5.67
2019-03-25T12:06:15.962Z,4.57
2019-03-25T12:08:18.189Z,5.80
2019-03-25T12:10:20.413Z,5.17
2019-03-25T12:12:22.633Z,8.93
2019-03-25T12:14:24.850Z,6.03
2019-03-25T12:16:27.402Z,5.33
2019-03-25T12:18:29.628Z,7.23
2019-03-25T12:20:31.909Z,7.60
2019-03-25T12:22:34.126Z,10.40
2019-03-25T12:24:36.341Z,6.40
2019-03-25T12:26:38.574Z,5.17
2019-03-25T12:28:40.845Z,14.00
2019-03-25T12:30:43.118Z,6.33
2019-03-25T12:32:45.342Z,2.70
2019-03-25T12:34:47.561Z,6.10
2019-03-25T12:36:49.790Z,10.87
2019-03-25T12:38:52.330Z,7.80
2019-03-25T12:40:54.558Z,6.63
2019-03-25T12:42:56.777Z,5.07
2019-03-25T12:44:58.998Z,7.87
2019-03-25T12:47:01.221Z,5.27
2019-03-25T12:49:03.439Z,6.87
2019-03-25T12:51:05.989Z,9.47
2019-03-25T12:53:08.205Z,7.47
2019-03-25T12:55:10.742Z,8.33
2019-03-25T12:57:12.977Z,13.10
2019-03-25T12:59:15.202Z,18.40
2019-03-25T13:01:17.429Z,11.17
2019-03-25T13:03:19.646Z,13.07
2019-03-25T13:05:21.861Z,18.00
2019-03-25T13:07:24.089Z,11.77
2019-03-25T13:09:26.314Z,5.00
2019-03-25T13:11:28.544Z,18.77
2019-03-25T13:13:30.755Z,7.60
2019-03-25T13:15:32.972Z,9.50
2019-03-25T13:17:35.213Z,18.33
2019-03-25T13:19:37.425Z,19.47
2019-03-25T13:21:39.653Z,12.73
2019-03-25T13:23:41.870Z,8.03
2019-03-25T13:25:44.138Z,9.47
2019-03-25T13:27:46.452Z,7.43
2019-03-25T13:29:52.857Z,6.33
2019-03-25T13:31:52.802Z,7.70
2019-03-25T13:33:55.025Z,6.90
2019-03-25T13:35:57.590Z,14.73
2019-03-25T13:37:59.810Z,8.13
2019-03-25T13:40:02.205Z,8.00
2019-03-25T13:42:04.534Z,6.87
2019-03-25T13:44:06.758Z,9.60
2019-03-25T13:46:08.989Z,10.90
2019-03-25T13:48:11.200Z,6.10
2019-03-25T13:50:13.438Z,7.97
2019-03-25T13:52:15.666Z,20.80
2019-03-25T13:54:17.881Z,9.90
2019-03-25T13:56:20.101Z,8.93
2019-03-25T13:58:22.313Z,14.60
2019-03-25T14:00:34.831Z,13.43
2019-03-25T14:02:37.057Z,8.03
2019-03-25T14:04:39.550Z,11.73
2019-03-25T14:06:41.777Z,8.27
2019-03-25T14:08:43.990Z,10.47
2019-03-25T14:10:46.204Z,7.30
2019-03-25T14:12:48.430Z,5.80
2019-03-25T14:14:50.917Z,7.90
2019-03-25T14:16:53.141Z,6.67
2019-03-25T14:18:55.366Z,9.30
2019-03-25T14:20:57.573Z,8.97
2019-03-25T14:22:59.785Z,4.70
2019-03-25T14:25:01.998Z,6.37
2019-03-25T14:27:04.233Z,7.77
2019-03-25T14:29:06.438Z,3.90
2019-03-25T14:31:08.649Z,7.93
2019-03-25T14:33:10.886Z,4.30
2019-03-25T14:35:13.110Z,12.70
2019-03-25T14:37:15.338Z,6.30
2019-03-25T14:39:20.588Z,9.67
2019-03-25T14:41:23.326Z,8.23
2019-03-25T14:43:25.577Z,8.60
2019-03-25T14:45:27.796Z,6.40
2019-03-25T14:47:30.026Z,20.27
2019-03-25T14:49:32.246Z,11.93
2019-03-25T14:51:34.466Z,8.63
2019-03-25T14:53:44.750Z,8.53
2019-03-25T14:55:40.818Z,13.03
2019-03-25T14:57:43.387Z,17.40
2019-03-25T14:59:45.621Z,10.70
2019-03-25T15:01:48.154Z,6.30
2019-03-25T15:03:50.385Z,6.67
2019-03-25T15:05:52.606Z,5.73
2019-03-25T15:07:55.128Z,6.23
2019-03-25T15:09:57.345Z,5.63
2019-03-25T15:11:59.561Z,6.37
2019-03-25T15:14:01.805Z,6.53
2019-03-25T15:16:04.025Z,7.07
2019-03-25T15:18:15.245Z,4.97
2019-03-25T15:20:10.842Z,4.63
2019-03-25T15:22:13.053Z,3.50
2019-03-25T15:24:15.275Z,7.73
2019-03-25T15:26:17.489Z,6.57
2019-03-25T15:28:19.713Z,7.60
2019-03-25T15:30:21.942Z,2.97
2019-03-25T15:32:24.171Z,4.63
2019-03-25T15:34:26.390Z,4.30
2019-03-25T15:36:28.609Z,6.30
2019-03-25T15:38:31.093Z,5.03
2019-03-25T15:40:33.427Z,8.00
2019-03-25T15:42:35.926Z,9.77
2019-03-25T15:44:38.475Z,1.93
2019-03-25T15:46:40.697Z,6.20
2019-03-25T15:48:42.930Z,5.47
2019-03-25T15:50:45.145Z,9.33
2019-03-25T15:52:48.030Z,5.70
2019-03-25T15:54:50.249Z,6.83
2019-03-25T15:56:52.461Z,3.13
2019-03-25T15:58:54.692Z,4.97
2019-03-25T16:00:57.229Z,6.33
2019-03-25T16:02:59.451Z,8.20
2019-03-25T16:05:02.001Z,6.00
2019-03-25T16:07:04.786Z,8.40
2019-03-25T16:09:07.315Z,7.40
2019-03-25T16:11:09.529Z,14.80
2019-03-25T16:13:11.863Z,11.20
2019-03-25T16:15:41.997Z,6.57
2019-03-25T16:17:44.305Z,6.37
2019-03-25T16:19:46.535Z,7.23
2019-03-25T16:21:49.170Z,4.10
2019-03-25T16:23:51.390Z,5.73
2019-03-25T16:25:53.614Z,4.57
2019-03-25T16:27:55.836Z,7.83
2019-03-25T16:29:58.066Z,8.30
2019-03-25T16:32:00.290Z,5.53
2019-03-25T16:34:02.525Z,6.20
2019-03-25T16:36:04.745Z,9.80
2019-03-25T16:38:06.977Z,9.87
2019-03-25T16:40:09.199Z,12.17
2019-03-25T16:42:11.417Z,8.50
2019-03-25T16:44:13.641Z,7.07
2019-03-25T16:46:15.863Z,13.90
2019-03-25T16:48:18.132Z,14.77
2019-03-25T16:50:20.446Z,6.77
2019-03-25T16:52:22.658Z,9.33
2019-03-25T16:54:24.890Z,9.50
2019-03-25T16:56:27.112Z,10.03
2019-03-25T16:58:29.337Z,12.67
2019-03-25T17:00:31.854Z,12.40
2019-03-25T17:02:34.067Z,16.53
2019-03-25T17:04:36.294Z,10.53
2019-03-25T17:06:38.520Z,14.73
2019-03-25T17:08:40.746Z,14.53
2019-03-25T17:10:42.969Z,12.77
2019-03-25T17:12:45.193Z,10.23
2019-03-25T17:14:47.437Z,10.17
2019-03-25T17:16:49.658Z,9.57
2019-03-25T17:18:51.898Z,12.43
2019-03-25T17:20:54.374Z,10.30
2019-03-25T17:22:56.589Z,11.50
2019-03-25T17:24:58.822Z,10.87
2019-03-25T17:27:01.037Z,8.83
2019-03-25T17:29:03.277Z,11.77
2019-03-25T17:31:06.158Z,14.87
2019-03-25T17:33:08.720Z,10.73
2019-03-25T17:35:11.043Z,13.67
2019-03-25T17:37:13.274Z,4.43
2019-03-25T17:39:15.500Z,11.27
2019-03-25T17:41:17.977Z,14.03
2019-03-25T17:43:20.202Z,6.67
2019-03-25T17:45:22.466Z,9.40
2019-03-25T17:47:24.956Z,7.60
2019-03-25T17:49:27.189Z,12.93
2019-03-25T17:51:29.404Z,6.57
2019-03-25T17:53:33.693Z,4.33
2019-03-25T17:55:35.981Z,11.17
2019-03-25T17:57:38.204Z,8.17
2019-03-25T17:59:40.458Z,9.20
2019-03-25T18:01:42.673Z,15.23
2019-03-25T18:03:45.150Z,9.80
2019-03-25T18:05:47.394Z,13.67
2019-03-25T18:07:49.878Z,10.47
2019-03-25T18:09:52.122Z,10.23
2019-03-25T18:11:54.336Z,13.17
2019-03-25T18:13:57.085Z,13.10
2019-03-25T18:15:59.377Z,10.90
2019-03-25T18:18:01.962Z,12.60
2019-03-25T18:20:05.312Z,14.10
2019-03-25T18:22:07.538Z,12.90
2019-03-25T18:24:09.761Z,11.83
2019-03-25T18:26:11.986Z,13.70
2019-03-25T18:28:14.219Z,8.33
2019-03-25T18:30:21.121Z,7.43
2019-03-25T18:32:23.649Z,12.53
2019-03-25T18:34:25.891Z,12.03
2019-03-25T18:36:28.110Z,18.43
2019-03-25T18:38:30.333Z,13.80
2019-03-25T18:40:32.574Z,13.43
2019-03-25T18:42:34.800Z,12.27
2019-03-25T18:44:37.034Z,19.50
2019-03-25T18:46:39.261Z,17.43
2019-03-25T18:48:41.473Z,11.87
2019-03-25T18:50:43.713Z,14.37
2019-03-25T18:52:46.212Z,12.63
2019-03-25T18:54:48.444Z,16.00
2019-03-25T18:56:50.657Z,14.00
2019-03-25T18:58:52.877Z,22.17
2019-03-25T19:00:55.126Z,13.00
2019-03-25T19:02:57.354Z,24.47
2019-03-25T19:04:59.598Z,16.40
2019-03-25T19:07:01.814Z,15.93
2019-03-25T19:09:06.246Z,22.37
2019-03-25T19:11:08.464Z,18.63
2019-03-25T19:13:10.685Z,28.07
2019-03-25T19:15:13.009Z,20.27
2019-03-25T19:17:15.226Z,19.20
2019-03-25T19:19:17.466Z,20.30
2019-03-25T19:21:19.784Z,15.63
2019-03-25T19:23:22.006Z,21.73
2019-03-25T19:25:24.243Z,16.30
2019-03-25T19:27:26.778Z,26.50
2019-03-25T19:29:28.993Z,29.40
2019-03-25T19:31:31.641Z,30.80
2019-03-25T19:33:33.851Z,20.37
2019-03-25T19:35:36.095Z,18.30
2019-03-25T19:37:38.401Z,27.20
2019-03-25T19:39:40.990Z,22.13
2019-03-25T19:41:43.261Z,24.37
2019-03-25T19:43:45.579Z,16.37
2019-03-25T19:45:47.893Z,23.50
2019-03-25T19:47:50.117Z,21.50
2019-03-25T19:49:52.731Z,15.33
2019-03-25T19:51:55.414Z,14.50
2019-03-25T19:53:57.712Z,23.07
2019-03-25T19:56:00.025Z,13.90
2019-03-25T19:58:02.282Z,25.53
2019-03-25T20:00:05.955Z,22.73
2019-03-25T20:02:18.518Z,21.47
2019-03-25T20:04:12.701Z,18.53
2019-03-25T20:06:25.719Z,12.00
2019-03-25T20:08:19.171Z,12.77
2019-03-25T20:10:28.487Z,20.50
2019-03-25T20:12:30.957Z,27.53
2019-03-25T20:14:33.231Z,18.20
2019-03-25T20:16:35.496Z,31.50
2019-03-25T20:18:37.785Z,19.30
2019-03-25T20:20:40.093Z,23.07
2019-03-25T20:22:42.382Z,23.43
2019-03-25T20:24:44.661Z,22.27
2019-03-25T20:26:46.935Z,31.33
2019-03-25T20:28:49.153Z,23.53
2019-03-25T20:30:51.578Z,25.53
2019-03-25T20:32:53.886Z,24.97
2019-03-25T20:34:56.105Z,24.50
2019-03-25T20:36:58.364Z,27.40
2019-03-25T20:39:00.996Z,24.33
2019-03-25T20:41:03.292Z,25.43
2019-03-25T20:43:05.556Z,24.23
2019-03-25T20:45:08.283Z,26.80
2019-03-25T20:47:10.591Z,27.40
2019-03-25T20:49:12.897Z,41.13
2019-03-25T20:51:15.246Z,41.80
2019-03-25T20:53:17.544Z,23.10
2019-03-25T20:55:19.830Z,33.83
2019-03-25T20:57:22.112Z,30.13
2019-03-25T20:59:24.428Z,31.93
2019-03-25T21:01:26.811Z,31.37
2019-03-25T21:03:29.107Z,31.93
2019-03-25T21:05:31.407Z,18.97
2019-03-25T21:07:33.670Z,23.03
2019-03-25T21:09:36.053Z,30.90
2019-03-25T21:11:38.518Z,26.27
2019-03-25T21:13:41.232Z,49.13
2019-03-25T21:15:43.535Z,33.37
2019-03-25T21:17:46.802Z,30.83
2019-03-25T21:19:49.226Z,33.27
2019-03-25T21:21:51.997Z,25.70
2019-03-25T21:23:54.321Z,32.60
2019-03-25T21:25:56.578Z,35.63
2019-03-25T21:27:58.822Z,29.63
2019-03-25T21:30:01.037Z,36.33
2019-03-25T21:32:03.621Z,35.73
2019-03-25T21:34:06.166Z,26.77
2019-03-25T21:36:08.569Z,25.10
2019-03-25T21:38:11.091Z,31.03
2019-03-25T21:40:13.673Z,38.10
2019-03-25T21:42:15.974Z,38.80
2019-03-25T21:44:18.346Z,29.97
2019-03-25T21:46:20.759Z,26.23
2019-03-25T21:48:23.339Z,31.43
2019-03-25T21:50:25.574Z,46.80
2019-03-25T21:52:27.963Z,37.93
2019-03-25T21:54:30.242Z,27.07
2019-03-25T21:56:32.597Z,31.50
2019-03-25T21:58:34.967Z,37.10
2019-03-25T22:00:37.555Z,46.30
2019-03-25T22:02:39.853Z,42.53
2019-03-25T22:04:42.068Z,35.60
2019-03-25T22:06:44.285Z,41.07
2019-03-25T22:08:46.525Z,55.63
2019-03-25T22:10:48.758Z,40.93
2019-03-25T22:12:50.985Z,45.30
2019-03-25T22:14:53.213Z,34.40
2019-03-25T22:16:55.441Z,47.00
2019-03-25T22:18:57.677Z,36.77
2019-03-25T22:20:59.898Z,41.73
2019-03-25T22:23:02.134Z,40.37
2019-03-25T22:25:04.681Z,40.50
2019-03-25T22:27:06.938Z,36.23
2019-03-25T22:29:09.158Z,37.50
2019-03-25T22:31:11.374Z,62.20
2019-03-25T22:33:25.243Z,36.10
2019-03-25T22:35:17.755Z,53.47
2019-03-25T22:37:19.993Z,69.60
2019-03-25T22:39:22.209Z,59.47
2019-03-25T22:41:24.524Z,71.87
2019-03-25T22:43:26.961Z,64.47
2019-03-25T22:45:30.218Z,50.83
2019-03-25T22:47:32.446Z,57.17
2019-03-25T22:49:34.661Z,62.93
2019-03-25T22:51:37.136Z,62.63
2019-03-25T22:53:39.366Z,70.20
2019-03-25T22:55:41.850Z,75.23
2019-03-25T22:57:44.525Z,62.60
2019-03-25T22:59:46.749Z,58.77
2019-03-25T23:01:48.971Z,64.53
2019-03-25T23:03:51.208Z,49.03
2019-03-25T23:05:53.433Z,62.93
2019-03-25T23:07:55.666Z,74.77
2019-03-25T23:09:57.884Z,73.63
2019-03-25T23:12:00.112Z,56.83
2019-03-25T23:14:02.340Z,54.50
2019-03-25T23:16:04.561Z,66.07
2019-03-25T23:18:07.138Z,75.23
2019-03-25T23:20:09.366Z,63.33
2019-03-25T23:22:11.582Z,53.70
2019-03-25T23:24:13.812Z,64.47
2019-03-25T23:26:16.032Z,65.60
2019-03-25T23:28:18.256Z,61.80
2019-03-25T23:30:20.791Z,46.87
2019-03-25T23:32:23.005Z,80.13
2019-03-25T23:34:25.238Z,52.50
2019-03-25T23:36:27.558Z,66.63
2019-03-25T23:38:29.790Z,71.63
2019-03-25T23:40:32.013Z,50.63
2019-03-25T23:42:34.234Z,65.90
2019-03-25T23:44:36.461Z,50.20
2019-03-25T23:46:38.958Z,69.77
2019-03-25T23:48:41.192Z,64.40
2019-03-25T23:50:43.408Z,59.77
2019-03-25T23:52:45.637Z,53.03
2019-03-25T23:54:48.201Z,56.07
2019-03-25T23:56:50.424Z,61.97
2019-03-25T23:58:52.657Z,67.60
